createdAt,value
2023-01-03T00:00:32.978Z,8.51
2023-01-03T00:01:32.745Z,8.51
2023-01-03T00:02:33.088Z,8.48
2023-01-03T00:03:32.724Z,8.51
2023-01-03T00:04:32.751Z,8.51
2023-01-03T00:05:32.707Z,8.52
2023-01-03T00:06:32.723Z,8.58
2023-01-03T00:07:32.683Z,8.53
2023-01-03T00:08:32.663Z,8.48
2023-01-03T00:09:32.662Z,8.55
2023-01-03T00:10:32.640Z,8.60
2023-01-03T00:11:32.728Z,8.58
2023-01-03T00:12:32.634Z,8.56
2023-01-03T00:13:32.612Z,8.63
2023-01-03T00:14:32.605Z,8.70
2023-01-03T00:15:32.592Z,8.61
2023-01-03T00:16:32.648Z,8.58
2023-01-03T00:17:32.615Z,8.67
2023-01-03T00:18:32.640Z,8.63
2023-01-03T00:19:32.781Z,8.69
2023-01-03T00:20:32.542Z,8.63
2023-01-03T00:21:32.530Z,8.70
2023-01-03T00:22:32.539Z,8.64
2023-01-03T00:23:32.508Z,8.66
2023-01-03T00:24:32.500Z,8.66
2023-01-03T00:25:32.486Z,8.63
2023-01-03T00:26:32.502Z,8.61
2023-01-03T00:27:32.474Z,8.70
2023-01-03T00:28:32.455Z,8.63
2023-01-03T00:29:32.442Z,8.66
2023-01-03T00:30:32.532Z,8.67
2023-01-03T00:31:32.432Z,8.63
2023-01-03T00:32:32.409Z,8.63
2023-01-03T00:33:32.426Z,8.69
2023-01-03T00:34:32.427Z,8.66
2023-01-03T00:35:32.584Z,8.64
2023-01-03T00:36:32.372Z,8.67
2023-01-03T00:37:32.373Z,8.61
2023-01-03T00:38:32.362Z,8.63
2023-01-03T00:39:32.347Z,8.63
2023-01-03T00:40:32.337Z,8.61
2023-01-03T00:41:32.333Z,8.49
2023-01-03T00:42:32.330Z,8.46
2023-01-03T00:43:32.330Z,8.52
2023-01-03T00:44:32.286Z,8.46
2023-01-03T00:45:35.511Z,8.51
2023-01-03T00:46:32.353Z,8.46
2023-01-03T00:47:32.255Z,8.44
2023-01-03T00:48:32.247Z,8.37
2023-01-03T00:49:32.241Z,8.38
2023-01-03T00:50:32.244Z,8.28
2023-01-03T00:51:32.207Z,8.26
2023-01-03T00:52:32.200Z,8.27
2023-01-03T00:53:32.194Z,8.26
2023-01-03T00:54:32.190Z,8.20
2023-01-03T00:55:32.166Z,8.23
2023-01-03T00:56:32.193Z,8.12
2023-01-03T00:57:32.163Z,8.09
2023-01-03T00:58:32.153Z,8.12
2023-01-03T00:59:32.124Z,8.08
2023-01-03T01:00:32.116Z,8.05
2023-01-03T01:01:32.292Z,8.08
2023-01-03T01:02:32.354Z,8.05
2023-01-03T01:03:32.162Z,7.98
2023-01-03T01:04:32.074Z,7.94
2023-01-03T01:05:32.265Z,7.94
2023-01-03T01:06:32.074Z,7.93
2023-01-03T01:07:32.039Z,7.94
2023-01-03T01:08:32.031Z,7.95
2023-01-03T01:09:32.040Z,7.93
2023-01-03T01:10:32.014Z,7.90
2023-01-03T01:11:31.999Z,7.88
2023-01-03T01:12:31.985Z,7.90
2023-01-03T01:13:32.181Z,7.82
2023-01-03T01:14:31.964Z,7.83
2023-01-03T01:15:32.059Z,7.80
2023-01-03T01:16:32.003Z,7.79
2023-01-03T01:17:31.936Z,7.83
2023-01-03T01:18:31.944Z,7.87
2023-01-03T01:19:31.912Z,7.91
2023-01-03T01:20:31.902Z,7.72
2023-01-03T01:21:31.908Z,7.93
2023-01-03T01:22:31.904Z,7.77
2023-01-03T01:23:31.865Z,7.76
2023-01-03T01:24:31.876Z,7.80
2023-01-03T01:25:31.887Z,7.85
2023-01-03T01:26:31.902Z,7.76
2023-01-03T01:27:31.832Z,7.87
2023-01-03T01:28:32.030Z,7.79
2023-01-03T01:29:31.832Z,7.80
2023-01-03T01:30:32.014Z,7.80
2023-01-03T01:31:31.943Z,7.85
2023-01-03T01:32:31.775Z,7.76
2023-01-03T01:33:31.763Z,7.85
2023-01-03T01:34:31.767Z,7.76
2023-01-03T01:35:31.757Z,7.69
2023-01-03T01:36:31.973Z,7.58
2023-01-03T01:37:31.725Z,7.61
2023-01-03T01:38:32.145Z,7.61
2023-01-03T01:39:31.693Z,7.58
2023-01-03T01:40:31.691Z,7.57
2023-01-03T01:41:31.678Z,7.53
2023-01-03T01:42:31.659Z,7.51
2023-01-03T01:43:31.646Z,7.45
2023-01-03T01:44:31.637Z,7.48
2023-01-03T01:45:31.828Z,7.50
2023-01-03T01:46:31.637Z,7.48
2023-01-03T01:47:31.650Z,7.51
2023-01-03T01:48:31.594Z,7.50
2023-01-03T01:49:31.581Z,7.43
2023-01-03T01:50:31.602Z,7.50
2023-01-03T01:51:31.608Z,7.48
2023-01-03T01:52:31.574Z,7.48
2023-01-03T01:53:31.549Z,7.47
2023-01-03T01:54:31.559Z,7.56
2023-01-03T01:55:31.520Z,7.57
2023-01-03T01:56:31.711Z,7.58
2023-01-03T01:57:31.500Z,7.61
2023-01-03T01:58:31.489Z,7.63
2023-01-03T01:59:31.473Z,7.63
2023-01-03T02:00:31.488Z,7.67
2023-01-03T02:01:31.591Z,7.75
2023-01-03T02:02:31.564Z,7.73
2023-01-03T02:03:31.450Z,7.80
2023-01-03T02:04:31.417Z,7.85
2023-01-03T02:05:31.405Z,7.82
2023-01-03T02:06:31.397Z,7.77
2023-01-03T02:07:31.386Z,7.83
2023-01-03T02:08:31.372Z,7.91
2023-01-03T02:09:31.387Z,7.88
2023-01-03T02:10:31.376Z,7.91
2023-01-03T02:11:31.337Z,7.90
2023-01-03T02:12:31.334Z,7.94
2023-01-03T02:13:31.346Z,7.90
2023-01-03T02:14:31.316Z,7.88
2023-01-03T02:15:31.295Z,7.91
2023-01-03T02:16:31.402Z,7.87
2023-01-03T02:17:31.274Z,7.83
2023-01-03T02:18:31.266Z,7.75
2023-01-03T02:19:31.251Z,7.77
2023-01-03T02:20:31.252Z,7.79
2023-01-03T02:21:31.238Z,7.75
2023-01-03T02:22:31.224Z,7.80
2023-01-03T02:23:31.426Z,7.85
2023-01-03T02:24:31.211Z,7.77
2023-01-03T02:25:31.187Z,7.67
2023-01-03T02:26:31.198Z,7.60
2023-01-03T02:27:31.177Z,7.66
2023-01-03T02:28:31.156Z,7.61
2023-01-03T02:29:31.144Z,7.51
2023-01-03T02:30:31.131Z,7.54
2023-01-03T02:31:31.212Z,7.56
2023-01-03T02:32:31.110Z,7.57
2023-01-03T02:33:31.110Z,7.50
2023-01-03T02:34:31.093Z,7.45
2023-01-03T02:35:31.077Z,7.47
2023-01-03T02:36:31.071Z,7.40
2023-01-03T02:37:31.058Z,7.39
2023-01-03T02:38:31.049Z,7.39
2023-01-03T02:39:31.031Z,7.36
2023-01-03T02:40:31.025Z,7.32
2023-01-03T02:41:31.012Z,7.35
2023-01-03T02:42:31.025Z,7.29
2023-01-03T02:43:30.988Z,7.29
2023-01-03T02:44:30.992Z,7.18
2023-01-03T02:45:30.964Z,7.23
2023-01-03T02:46:31.066Z,7.15
2023-01-03T02:47:30.943Z,7.15
2023-01-03T02:48:30.930Z,7.13
2023-01-03T02:49:30.917Z,7.07
2023-01-03T02:50:30.930Z,7.15
2023-01-03T02:51:30.893Z,7.07
2023-01-03T02:52:30.913Z,7.02
2023-01-03T02:53:30.887Z,6.92
2023-01-03T02:54:30.887Z,7.02
2023-01-03T02:55:30.908Z,6.96
2023-01-03T02:56:30.844Z,6.97
2023-01-03T02:57:30.829Z,7.05
2023-01-03T02:58:30.905Z,6.96
2023-01-03T02:59:30.805Z,6.93
2023-01-03T03:00:30.821Z,6.85
2023-01-03T03:01:30.926Z,6.82
2023-01-03T03:02:31.258Z,6.85
2023-01-03T03:03:30.784Z,6.75
2023-01-03T03:04:30.749Z,6.77
2023-01-03T03:05:30.739Z,6.74
2023-01-03T03:06:30.929Z,6.74
2023-01-03T03:07:30.717Z,6.70
2023-01-03T03:08:30.717Z,6.78
2023-01-03T03:09:30.698Z,6.69
2023-01-03T03:10:30.680Z,6.66
2023-01-03T03:11:30.667Z,6.60
2023-01-03T03:12:30.667Z,6.66
2023-01-03T03:13:30.648Z,6.59
2023-01-03T03:14:30.779Z,6.62
2023-01-03T03:15:30.628Z,6.57
2023-01-03T03:16:30.685Z,6.56
2023-01-03T03:17:30.629Z,6.57
2023-01-03T03:18:30.605Z,6.54
2023-01-03T03:19:30.577Z,6.51
2023-01-03T03:20:30.566Z,6.60
2023-01-03T03:21:30.572Z,6.56
2023-01-03T03:22:30.547Z,6.49
2023-01-03T03:23:30.535Z,6.57
2023-01-03T03:24:30.522Z,6.57
2023-01-03T03:25:30.510Z,6.56
2023-01-03T03:26:30.706Z,6.59
2023-01-03T03:27:30.693Z,6.60
2023-01-03T03:28:30.477Z,6.63
2023-01-03T03:29:30.466Z,6.60
2023-01-03T03:30:30.470Z,6.75
2023-01-03T03:31:30.576Z,6.64
2023-01-03T03:32:30.429Z,6.67
2023-01-03T03:33:30.417Z,6.67
2023-01-03T03:34:30.609Z,6.66
2023-01-03T03:35:30.393Z,6.59
2023-01-03T03:36:30.385Z,6.54
2023-01-03T03:37:30.373Z,6.57
2023-01-03T03:38:30.359Z,6.51
2023-01-03T03:39:30.346Z,6.60
2023-01-03T03:40:30.341Z,6.56
2023-01-03T03:41:30.323Z,6.49
2023-01-03T03:42:30.320Z,6.52
2023-01-03T03:43:30.313Z,6.59
2023-01-03T03:44:30.301Z,6.54
2023-01-03T03:45:30.290Z,6.57
2023-01-03T03:46:30.548Z,6.52
2023-01-03T03:47:30.276Z,6.51
2023-01-03T03:48:30.285Z,6.52
2023-01-03T03:49:30.245Z,6.54
2023-01-03T03:50:30.216Z,6.52
2023-01-03T03:51:30.209Z,6.56
2023-01-03T03:52:30.218Z,6.54
2023-01-03T03:53:30.186Z,6.54
2023-01-03T03:54:30.174Z,6.54
2023-01-03T03:55:30.165Z,6.52
2023-01-03T03:56:30.149Z,6.56
2023-01-03T03:57:30.141Z,6.52
2023-01-03T03:58:30.146Z,6.57
2023-01-03T03:59:30.154Z,6.49
2023-01-03T04:00:30.122Z,6.51
2023-01-03T04:01:30.278Z,6.52
2023-01-03T04:02:30.235Z,6.49
2023-01-03T04:03:30.219Z,6.52
2023-01-03T04:04:30.269Z,6.49
2023-01-03T04:05:30.050Z,6.46
2023-01-03T04:06:30.045Z,6.51
2023-01-03T04:07:30.022Z,6.48
2023-01-03T04:08:30.018Z,6.49
2023-01-03T04:09:30.026Z,6.45
2023-01-03T04:10:34.123Z,6.49
2023-01-03T04:11:29.976Z,6.42
2023-01-03T04:12:29.968Z,6.36
2023-01-03T04:13:30.158Z,6.33
2023-01-03T04:14:29.939Z,6.38
2023-01-03T04:15:29.978Z,6.36
2023-01-03T04:16:29.990Z,6.31
2023-01-03T04:17:29.930Z,6.33
2023-01-03T04:18:30.155Z,6.36
2023-01-03T04:19:29.914Z,6.26
2023-01-03T04:20:29.878Z,6.30
2023-01-03T04:21:29.857Z,6.26
2023-01-03T04:22:29.913Z,6.22
2023-01-03T04:23:29.835Z,6.24
2023-01-03T04:24:29.828Z,6.22
2023-01-03T04:25:29.849Z,6.35
2023-01-03T04:26:30.030Z,6.33
2023-01-03T04:27:29.788Z,6.27
2023-01-03T04:28:29.776Z,6.30
2023-01-03T04:29:31.729Z,6.31
2023-01-03T04:30:29.750Z,6.30
2023-01-03T04:31:29.784Z,6.33
2023-01-03T04:32:29.760Z,6.38
2023-01-03T04:33:29.741Z,6.36
2023-01-03T04:34:29.824Z,6.38
2023-01-03T04:35:29.689Z,6.44
2023-01-03T04:36:29.689Z,6.45
2023-01-03T04:37:29.917Z,6.49
2023-01-03T04:38:29.681Z,6.48
2023-01-03T04:39:29.715Z,6.46
2023-01-03T04:40:29.653Z,6.45
2023-01-03T04:41:29.641Z,6.45
2023-01-03T04:42:29.612Z,6.39
2023-01-03T04:43:29.615Z,6.48
2023-01-03T04:44:29.791Z,6.35
2023-01-03T04:45:29.632Z,6.35
2023-01-03T04:46:29.567Z,6.33
2023-01-03T04:47:29.578Z,6.33
2023-01-03T04:48:29.553Z,6.38
2023-01-03T04:49:29.554Z,6.33
2023-01-03T04:50:29.585Z,6.39
2023-01-03T04:51:29.517Z,6.33
2023-01-03T04:52:29.507Z,6.30
2023-01-03T04:53:29.487Z,6.30
2023-01-03T04:54:29.470Z,6.36
2023-01-03T04:55:29.487Z,6.31
2023-01-03T04:56:29.451Z,6.46
2023-01-03T04:57:29.441Z,6.44
2023-01-03T04:58:29.440Z,6.41
2023-01-03T04:59:29.412Z,6.45
2023-01-03T05:00:29.448Z,6.51
2023-01-03T05:01:29.635Z,6.51
2023-01-03T05:02:29.488Z,6.57
2023-01-03T05:03:29.363Z,6.51
2023-01-03T05:04:29.434Z,6.56
2023-01-03T05:05:29.364Z,6.52
2023-01-03T05:06:29.428Z,6.59
2023-01-03T05:07:29.329Z,6.59
2023-01-03T05:08:29.339Z,6.63
2023-01-03T05:09:29.296Z,6.64
2023-01-03T05:10:29.306Z,6.69
2023-01-03T05:11:29.274Z,6.79
2023-01-03T05:12:29.314Z,6.77
2023-01-03T05:13:29.347Z,6.74
2023-01-03T05:14:29.231Z,6.72
2023-01-03T05:15:29.224Z,6.77
2023-01-03T05:16:29.309Z,6.81
2023-01-03T05:17:29.245Z,6.81
2023-01-03T05:18:29.215Z,6.81
2023-01-03T05:19:29.177Z,6.84
2023-01-03T05:20:29.191Z,6.84
2023-01-03T05:21:29.158Z,6.78
2023-01-03T05:22:29.193Z,6.99
2023-01-03T05:23:29.136Z,7.00
2023-01-03T05:24:29.115Z,7.02
2023-01-03T05:25:29.106Z,6.89
2023-01-03T05:26:29.092Z,7.00
2023-01-03T05:27:29.115Z,6.96
2023-01-03T05:28:29.082Z,6.89
2023-01-03T05:29:29.100Z,7.03
2023-01-03T05:30:29.072Z,6.95
2023-01-03T05:31:29.140Z,6.95
2023-01-03T05:32:29.136Z,6.97
2023-01-03T05:33:29.048Z,6.97
2023-01-03T05:34:29.017Z,6.93
2023-01-03T05:35:29.027Z,6.96
2023-01-03T05:36:29.044Z,6.96
2023-01-03T05:37:28.973Z,6.96
2023-01-03T05:38:29.319Z,6.85
2023-01-03T05:39:29.207Z,6.85
2023-01-03T05:40:28.936Z,6.81
2023-01-03T05:41:28.927Z,6.84
2023-01-03T05:42:28.944Z,6.84
2023-01-03T05:43:28.933Z,6.87
2023-01-03T05:44:29.112Z,6.79
2023-01-03T05:45:28.874Z,6.85
2023-01-03T05:46:28.948Z,6.87
2023-01-03T05:47:28.877Z,6.82
2023-01-03T05:48:28.873Z,6.75
2023-01-03T05:49:28.843Z,6.72
2023-01-03T05:50:28.853Z,6.72
2023-01-03T05:51:28.805Z,6.79
2023-01-03T05:52:28.854Z,6.66
2023-01-03T05:53:28.799Z,6.69
2023-01-03T05:54:28.808Z,6.59
2023-01-03T05:55:28.812Z,6.66
2023-01-03T05:56:28.751Z,6.57
2023-01-03T05:57:35.051Z,6.59
2023-01-03T05:58:28.736Z,6.52
2023-01-03T05:59:28.736Z,6.54
2023-01-03T06:00:28.703Z,6.52
2023-01-03T06:01:28.854Z,6.42
2023-01-03T06:02:28.975Z,6.44
2023-01-03T06:03:28.684Z,6.44
2023-01-03T06:04:28.730Z,6.33
2023-01-03T06:05:28.660Z,6.31
2023-01-03T06:06:28.836Z,6.24
2023-01-03T06:07:28.637Z,6.19
2023-01-03T06:08:28.614Z,6.09
2023-01-03T06:09:28.636Z,6.17
2023-01-03T06:10:28.636Z,6.20
2023-01-03T06:11:28.625Z,6.09
2023-01-03T06:12:28.591Z,6.09
2023-01-03T06:13:28.549Z,6.07
2023-01-03T06:14:28.539Z,6.08
2023-01-03T06:15:28.530Z,6.05
2023-01-03T06:16:28.592Z,6.02
2023-01-03T06:17:28.560Z,6.05
2023-01-03T06:18:28.495Z,6.05
2023-01-03T06:19:28.481Z,6.04
2023-01-03T06:20:28.473Z,5.98
2023-01-03T06:21:28.456Z,5.99
2023-01-03T06:22:28.461Z,5.98
2023-01-03T06:23:28.485Z,5.98
2023-01-03T06:24:28.416Z,6.01
2023-01-03T06:25:28.421Z,5.91
2023-01-03T06:26:28.417Z,6.01
2023-01-03T06:27:28.386Z,5.89
2023-01-03T06:28:28.373Z,5.99
2023-01-03T06:29:28.363Z,5.91
2023-01-03T06:30:28.398Z,5.91
2023-01-03T06:31:28.429Z,5.91
2023-01-03T06:32:28.324Z,5.91
2023-01-03T06:33:28.316Z,5.91
2023-01-03T06:34:28.303Z,6.01
2023-01-03T06:35:28.288Z,5.89
2023-01-03T06:36:28.294Z,5.98
2023-01-03T06:37:28.286Z,5.91
2023-01-03T06:38:28.253Z,5.91
2023-01-03T06:39:28.247Z,5.87
2023-01-03T06:40:36.188Z,5.89
2023-01-03T06:41:28.220Z,5.90
2023-01-03T06:42:28.225Z,5.90
2023-01-03T06:43:28.206Z,5.89
2023-01-03T06:44:28.181Z,5.89
2023-01-03T06:45:28.180Z,5.79
2023-01-03T06:46:28.417Z,5.91
2023-01-03T06:47:28.145Z,5.83
2023-01-03T06:48:28.161Z,5.84
2023-01-03T06:49:28.529Z,5.76
2023-01-03T06:50:28.146Z,5.72
2023-01-03T06:51:28.101Z,5.68
2023-01-03T06:52:28.083Z,5.66
2023-01-03T06:53:28.074Z,5.72
2023-01-03T06:54:28.064Z,5.75
2023-01-03T06:55:28.061Z,5.68
2023-01-03T06:56:28.091Z,5.75
2023-01-03T06:57:28.075Z,5.71
2023-01-03T06:58:28.051Z,5.72
2023-01-03T06:59:28.005Z,5.73
2023-01-03T07:00:27.989Z,5.71
2023-01-03T07:01:28.359Z,5.64
2023-01-03T07:02:28.149Z,5.69
2023-01-03T07:03:27.983Z,5.62
2023-01-03T07:04:28.018Z,5.62
2023-01-03T07:05:28.136Z,5.65
2023-01-03T07:06:27.914Z,5.61
2023-01-03T07:07:27.946Z,5.61
2023-01-03T07:08:28.103Z,5.54
2023-01-03T07:09:27.905Z,5.64
2023-01-03T07:10:27.876Z,5.54
2023-01-03T07:11:27.867Z,5.54
2023-01-03T07:12:27.846Z,5.62
2023-01-03T07:13:27.833Z,5.54
2023-01-03T07:14:27.856Z,5.54
2023-01-03T07:15:28.023Z,5.56
2023-01-03T07:16:27.901Z,5.51
2023-01-03T07:17:28.006Z,5.54
2023-01-03T07:18:27.788Z,5.54
2023-01-03T07:19:27.789Z,5.51
2023-01-03T07:20:27.769Z,5.51
2023-01-03T07:21:27.751Z,5.56
2023-01-03T07:22:27.746Z,5.54
2023-01-03T07:23:27.729Z,5.51
2023-01-03T07:24:27.710Z,5.53
2023-01-03T07:25:27.690Z,5.54
2023-01-03T07:26:27.675Z,5.62
2023-01-03T07:27:27.674Z,5.53
2023-01-03T07:28:27.654Z,5.62
2023-01-03T07:29:27.637Z,5.56
2023-01-03T07:30:27.651Z,5.62
2023-01-03T07:31:27.685Z,5.53
2023-01-03T07:32:27.616Z,5.59
2023-01-03T07:33:27.602Z,5.54
2023-01-03T07:34:27.583Z,5.62
2023-01-03T07:35:27.570Z,5.66
2023-01-03T07:36:27.574Z,5.54
2023-01-03T07:37:27.545Z,5.53
2023-01-03T07:38:27.543Z,5.64
2023-01-03T07:39:27.517Z,5.66
2023-01-03T07:40:27.723Z,5.68
2023-01-03T07:41:27.497Z,5.71
2023-01-03T07:42:27.486Z,5.68
2023-01-03T07:43:27.469Z,5.79
2023-01-03T07:44:27.467Z,5.75
2023-01-03T07:45:27.446Z,5.86
2023-01-03T07:46:27.508Z,5.89
2023-01-03T07:47:27.429Z,5.91
2023-01-03T07:48:27.412Z,5.98
2023-01-03T07:49:27.397Z,5.94
2023-01-03T07:50:27.662Z,5.97
2023-01-03T07:51:27.370Z,6.01
2023-01-03T07:52:27.366Z,6.05
2023-01-03T07:53:27.348Z,6.08
2023-01-03T07:54:27.335Z,6.14
2023-01-03T07:55:27.527Z,6.22
2023-01-03T07:56:27.307Z,6.31
2023-01-03T07:57:27.296Z,6.33
2023-01-03T07:58:27.325Z,6.44
2023-01-03T07:59:27.279Z,6.54
2023-01-03T08:00:27.318Z,6.56
2023-01-03T08:01:27.363Z,6.63
2023-01-03T08:02:27.484Z,6.77
2023-01-03T08:03:27.224Z,6.78
2023-01-03T08:04:27.271Z,6.84
2023-01-03T08:05:27.268Z,6.82
2023-01-03T08:06:27.188Z,6.87
2023-01-03T08:07:27.180Z,6.95
2023-01-03T08:08:27.168Z,6.95
2023-01-03T08:09:27.362Z,7.21
2023-01-03T08:10:27.208Z,7.51
2023-01-03T08:11:27.135Z,7.76
2023-01-03T08:12:27.122Z,8.03
2023-01-03T08:13:27.117Z,8.09
2023-01-03T08:14:27.603Z,8.28
2023-01-03T08:15:27.092Z,8.20
2023-01-03T08:16:27.241Z,8.38
2023-01-03T08:17:27.076Z,8.49
2023-01-03T08:18:27.092Z,8.53
2023-01-03T08:19:27.043Z,8.60
2023-01-03T08:20:27.031Z,8.52
2023-01-03T08:21:27.026Z,8.51
2023-01-03T08:22:27.023Z,8.63
2023-01-03T08:23:27.008Z,8.74
2023-01-03T08:24:27.001Z,8.76
2023-01-03T08:25:26.981Z,8.79
2023-01-03T08:26:26.978Z,8.95
2023-01-03T08:27:27.167Z,8.95
2023-01-03T08:28:26.951Z,9.16
2023-01-03T08:29:27.148Z,9.19
2023-01-03T08:30:26.933Z,9.43
2023-01-03T08:31:26.958Z,9.76
2023-01-03T08:32:26.925Z,10.16
2023-01-03T08:33:26.902Z,10.71
2023-01-03T08:34:29.816Z,11.11
2023-01-03T08:35:26.928Z,11.40
2023-01-03T08:36:26.908Z,11.59
2023-01-03T08:37:26.865Z,11.87
2023-01-03T08:38:26.872Z,11.75
2023-01-03T08:39:26.850Z,11.32
2023-01-03T08:40:26.856Z,11.11
2023-01-03T08:41:26.845Z,11.48
2023-01-03T08:42:27.034Z,11.81
2023-01-03T08:43:26.872Z,12.27
2023-01-03T08:44:26.898Z,12.87
2023-01-03T08:45:26.881Z,13.42
2023-01-03T08:46:26.860Z,13.78
2023-01-03T08:47:26.840Z,13.56
2023-01-03T08:48:26.810Z,13.71
2023-01-03T08:49:26.793Z,13.92
2023-01-03T08:50:26.906Z,13.85
2023-01-03T08:51:27.000Z,14.12
2023-01-03T08:52:31.583Z,14.11
2023-01-03T08:53:26.796Z,14.14
2023-01-03T08:54:26.805Z,14.11
2023-01-03T08:55:26.736Z,14.11
2023-01-03T08:56:26.769Z,14.05
2023-01-03T08:57:26.765Z,14.15
2023-01-03T08:58:26.743Z,13.93
2023-01-03T08:59:26.750Z,14.15
2023-01-03T09:00:26.721Z,14.07
2023-01-03T09:01:26.896Z,14.15
2023-01-03T09:02:27.084Z,14.23
2023-01-03T09:03:26.901Z,14.32
2023-01-03T09:04:26.708Z,14.22
2023-01-03T09:05:26.700Z,13.85
2023-01-03T09:06:26.731Z,13.47
2023-01-03T09:07:26.708Z,13.13
2023-01-03T09:08:26.738Z,13.16
2023-01-03T09:09:26.776Z,13.08
2023-01-03T09:10:26.682Z,13.04
2023-01-03T09:11:26.709Z,12.87
2023-01-03T09:12:26.670Z,13.03
2023-01-03T09:13:26.697Z,13.33
2023-01-03T09:14:26.655Z,13.47
2023-01-03T09:15:26.637Z,13.50
2023-01-03T09:16:26.757Z,13.20
2023-01-03T09:17:26.667Z,13.44
2023-01-03T09:18:26.648Z,13.16
2023-01-03T09:19:26.700Z,12.82
2023-01-03T09:20:26.627Z,12.29
2023-01-03T09:21:27.231Z,11.97
2023-01-03T09:22:26.656Z,12.00
2023-01-03T09:23:26.657Z,11.77
2023-01-03T09:24:26.625Z,11.55
2023-01-03T09:25:29.288Z,11.90
2023-01-03T09:26:26.855Z,12.18
2023-01-03T09:27:26.655Z,12.12
2023-01-03T09:28:26.608Z,12.02
2023-01-03T09:29:26.693Z,11.83
2023-01-03T09:30:26.607Z,11.45
2023-01-03T09:31:26.672Z,11.83
2023-01-03T09:32:26.615Z,12.15
2023-01-03T09:33:26.603Z,12.21
2023-01-03T09:34:26.604Z,12.43
2023-01-03T09:35:26.623Z,12.57
2023-01-03T09:36:26.615Z,12.78
2023-01-03T09:37:26.602Z,13.04
2023-01-03T09:38:26.583Z,13.22
2023-01-03T09:39:26.625Z,12.97
2023-01-03T09:40:26.799Z,12.65
2023-01-03T09:41:26.800Z,12.70
2023-01-03T09:42:26.607Z,12.10
2023-01-03T09:43:26.552Z,11.52
2023-01-03T09:44:26.592Z,11.47
2023-01-03T09:45:26.780Z,11.37
2023-01-03T09:46:26.585Z,11.10
2023-01-03T09:47:26.538Z,11.10
2023-01-03T09:48:26.558Z,10.99
2023-01-03T09:49:26.547Z,11.15
2023-01-03T09:50:38.837Z,11.40
2023-01-03T09:51:30.007Z,11.08
2023-01-03T09:52:26.541Z,11.50
2023-01-03T09:53:26.554Z,11.66
2023-01-03T09:54:26.559Z,11.87
2023-01-03T09:55:26.537Z,11.91
2023-01-03T09:56:26.527Z,11.97
2023-01-03T09:57:28.683Z,12.12
2023-01-03T09:58:26.542Z,12.36
2023-01-03T09:59:26.529Z,12.57
2023-01-03T10:00:26.548Z,12.27
2023-01-03T10:01:26.649Z,11.95
2023-01-03T10:02:26.728Z,11.77
2023-01-03T10:03:26.710Z,11.62
2023-01-03T10:04:26.536Z,11.51
2023-01-03T10:05:26.547Z,11.70
2023-01-03T10:06:26.519Z,12.02
2023-01-03T10:07:26.516Z,11.97
2023-01-03T10:08:26.522Z,12.22
2023-01-03T10:09:26.541Z,12.31
2023-01-03T10:10:26.580Z,12.46
2023-01-03T10:11:26.524Z,12.64
2023-01-03T10:12:26.512Z,12.76
2023-01-03T10:13:26.526Z,13.03
2023-01-03T10:14:26.575Z,13.31
2023-01-03T10:15:26.538Z,13.22
2023-01-03T10:16:26.603Z,13.23
2023-01-03T10:17:26.543Z,13.23
2023-01-03T10:18:26.559Z,13.44
2023-01-03T10:19:26.560Z,13.56
2023-01-03T10:20:28.069Z,13.65
2023-01-03T10:21:26.507Z,13.79
2023-01-03T10:22:26.520Z,13.67
2023-01-03T10:23:26.603Z,13.71
2023-01-03T10:24:26.542Z,13.79
2023-01-03T10:25:26.491Z,13.89
2023-01-03T10:26:32.467Z,13.75
2023-01-03T10:27:26.514Z,13.87
2023-01-03T10:28:26.522Z,13.96
2023-01-03T10:29:26.511Z,14.11
2023-01-03T10:30:26.510Z,14.11
2023-01-03T10:31:27.007Z,14.23
2023-01-03T10:32:26.525Z,14.36
2023-01-03T10:33:26.489Z,14.62
2023-01-03T10:34:26.760Z,14.94
2023-01-03T10:35:26.493Z,15.04
2023-01-03T10:36:26.496Z,15.24
2023-01-03T10:37:26.594Z,15.28
2023-01-03T10:38:26.501Z,15.46
2023-01-03T10:39:26.499Z,15.51
2023-01-03T10:40:26.516Z,15.68
2023-01-03T10:41:26.509Z,15.59
2023-01-03T10:42:26.730Z,15.59
2023-01-03T10:43:26.555Z,15.51
2023-01-03T10:44:26.484Z,15.33
2023-01-03T10:45:26.553Z,15.33
2023-01-03T10:46:26.607Z,15.29
2023-01-03T10:47:26.479Z,15.31
2023-01-03T10:48:26.539Z,15.33
2023-01-03T10:49:28.869Z,15.33
2023-01-03T10:50:26.502Z,15.21
2023-01-03T10:51:26.487Z,15.19
2023-01-03T10:52:26.484Z,15.29
2023-01-03T10:53:26.496Z,15.10
2023-01-03T10:54:26.502Z,15.03
2023-01-03T10:55:26.667Z,15.04
2023-01-03T10:56:26.473Z,15.00
2023-01-03T10:57:26.478Z,15.17
2023-01-03T10:58:32.160Z,15.33
2023-01-03T10:59:26.482Z,15.44
2023-01-03T11:00:26.521Z,15.52
2023-01-03T11:01:26.652Z,15.46
2023-01-03T11:02:26.644Z,15.68
2023-01-03T11:03:26.594Z,15.29
2023-01-03T11:04:26.464Z,15.19
2023-01-03T11:05:26.511Z,15.02
2023-01-03T11:06:26.428Z,15.03
2023-01-03T11:07:26.440Z,15.02
2023-01-03T11:08:26.629Z,14.99
2023-01-03T11:09:26.658Z,14.99
2023-01-03T11:10:26.431Z,14.97
2023-01-03T11:11:26.499Z,14.94
2023-01-03T11:12:26.476Z,14.92
2023-01-03T11:13:26.447Z,14.82
2023-01-03T11:14:26.439Z,14.68
2023-01-03T11:15:26.432Z,14.85
2023-01-03T11:16:26.528Z,14.99
2023-01-03T11:17:26.434Z,14.97
2023-01-03T11:18:26.408Z,15.10
2023-01-03T11:19:26.695Z,15.17
2023-01-03T11:20:26.437Z,15.21
2023-01-03T11:21:26.412Z,15.19
2023-01-03T11:22:27.943Z,15.27
2023-01-03T11:23:26.408Z,15.28
2023-01-03T11:24:26.396Z,15.24
2023-01-03T11:25:26.592Z,15.18
2023-01-03T11:26:26.603Z,15.17
2023-01-03T11:27:26.399Z,15.19
2023-01-03T11:28:26.614Z,15.09
2023-01-03T11:29:26.388Z,15.14
2023-01-03T11:30:26.473Z,14.97
2023-01-03T11:31:26.501Z,15.04
2023-01-03T11:32:26.434Z,14.94
2023-01-03T11:33:29.534Z,14.91
2023-01-03T11:34:26.392Z,14.94
2023-01-03T11:35:26.406Z,14.82
2023-01-03T11:36:26.377Z,14.70
2023-01-03T11:37:26.389Z,14.26
2023-01-03T11:38:26.382Z,14.11
2023-01-03T11:39:27.255Z,13.95
2023-01-03T11:40:26.542Z,13.87
2023-01-03T11:41:26.337Z,13.93
2023-01-03T11:42:26.349Z,13.87
2023-01-03T11:43:26.334Z,13.85
2023-01-03T11:44:26.329Z,13.77
2023-01-03T11:45:26.325Z,13.74
2023-01-03T11:46:26.444Z,13.53
2023-01-03T11:47:26.328Z,13.38
2023-01-03T11:48:26.309Z,13.31
2023-01-03T11:49:26.384Z,13.27
2023-01-03T11:50:26.297Z,13.22
2023-01-03T11:51:26.287Z,13.04
2023-01-03T11:52:26.285Z,13.01
2023-01-03T11:53:26.265Z,13.03
2023-01-03T11:54:26.266Z,13.05
2023-01-03T11:55:26.272Z,13.18
2023-01-03T11:56:26.291Z,13.22
2023-01-03T11:57:26.264Z,13.19
2023-01-03T11:58:26.254Z,13.16
2023-01-03T11:59:26.448Z,13.27
2023-01-03T12:00:26.230Z,13.28
2023-01-03T12:01:26.351Z,13.31
2023-01-03T12:02:26.513Z,13.42
2023-01-03T12:03:26.528Z,13.53
2023-01-03T12:04:26.312Z,13.49
2023-01-03T12:05:26.202Z,13.54
2023-01-03T12:06:28.881Z,13.59
2023-01-03T12:08:26.210Z,13.77
2023-01-03T12:09:26.256Z,13.62
2023-01-03T12:10:26.187Z,13.60
2023-01-03T12:11:26.163Z,13.53
2023-01-03T12:12:26.149Z,13.52
2023-01-03T12:13:29.667Z,13.46
2023-01-03T12:14:26.348Z,13.35
2023-01-03T12:15:26.178Z,13.11
2023-01-03T12:16:26.538Z,12.85
2023-01-03T12:17:26.161Z,12.65
2023-01-03T12:18:26.182Z,12.62
2023-01-03T12:19:26.141Z,12.53
2023-01-03T12:20:26.159Z,12.43
2023-01-03T12:21:26.122Z,12.36
2023-01-03T12:22:26.097Z,12.29
2023-01-03T12:23:26.088Z,12.31
2023-01-03T12:24:26.111Z,12.02
2023-01-03T12:25:26.323Z,11.87
2023-01-03T12:26:26.075Z,11.77
2023-01-03T12:27:26.064Z,11.65
2023-01-03T12:28:26.038Z,11.45
2023-01-03T12:29:26.041Z,11.41
2023-01-03T12:30:26.034Z,11.41
2023-01-03T12:31:31.257Z,11.33
2023-01-03T12:32:26.001Z,11.33
2023-01-03T12:33:25.995Z,11.32
2023-01-03T12:34:26.035Z,11.25
2023-01-03T12:35:26.184Z,11.19
2023-01-03T12:36:25.983Z,11.32
2023-01-03T12:37:26.173Z,11.33
2023-01-03T12:38:25.995Z,11.40
2023-01-03T12:39:32.528Z,11.33
2023-01-03T12:40:25.941Z,11.40
2023-01-03T12:41:25.936Z,11.35
2023-01-03T12:42:25.930Z,11.33
2023-01-03T12:43:26.124Z,11.32
2023-01-03T12:44:25.914Z,11.41
2023-01-03T12:45:31.112Z,11.40
2023-01-03T12:46:25.957Z,11.37
2023-01-03T12:47:25.883Z,11.44
2023-01-03T12:48:25.884Z,11.45
2023-01-03T12:49:25.877Z,11.48
2023-01-03T12:50:25.887Z,11.50
2023-01-03T12:51:25.876Z,11.50
2023-01-03T12:52:25.840Z,11.51
2023-01-03T12:53:25.852Z,11.50
2023-01-03T12:54:25.838Z,11.50
2023-01-03T12:55:25.807Z,11.47
2023-01-03T12:56:25.808Z,11.52
2023-01-03T12:57:25.807Z,11.48
2023-01-03T12:58:25.789Z,11.48
2023-01-03T12:59:25.772Z,11.50
2023-01-03T13:00:25.769Z,11.51
2023-01-03T13:01:25.835Z,11.41
2023-01-03T13:02:25.931Z,11.40
2023-01-03T13:03:25.882Z,11.45
2023-01-03T13:04:25.828Z,11.35
2023-01-03T13:05:25.729Z,11.30
2023-01-03T13:06:25.744Z,11.29
2023-01-03T13:07:25.730Z,11.33
2023-01-03T13:08:25.699Z,11.30
2023-01-03T13:09:25.687Z,11.37
2023-01-03T13:10:25.677Z,11.35